sensor_id;sensor_type;location;lat;lon;timestamp;P1;durP1;ratioP1;P2;durP2;ratioP2
9424;SDS011;17139;52.140;11.636;2023-02-28T00:02:22;2.40;;;2.20;;
9424;SDS011;17139;52.140;11.636;2023-02-28T00:04:49;2.90;;;2.70;;
9424;SDS011;17139;52.140;11.636;2023-02-28T00:07:18;2.30;;;2.20;;
9424;SDS011;17139;52.140;11.636;2023-02-28T00:09:45;3.10;;;2.90;;
9424;SDS011;17139;52.140;11.636;2023-02-28T00:12:13;2.60;;;2.50;;
9424;SDS011;17139;52.140;11.636;2023-02-28T00:14:40;2.37;;;2.27;;
9424;SDS011;17139;52.140;11.636;2023-02-28T00:17:07;2.60;;;2.50;;
9424;SDS011;17139;52.140;11.636;2023-02-28T00:19:34;2.47;;;2.37;;
9424;SDS011;17139;52.140;11.636;2023-02-28T00:22:02;2.87;;;2.67;;
9424;SDS011;17139;52.140;11.636;2023-02-28T00:24:29;2.67;;;2.57;;
9424;SDS011;17139;52.140;11.636;2023-02-28T00:26:56;2.53;;;2.40;;
9424;SDS011;17139;52.140;11.636;2023-02-28T00:29:24;4.43;;;2.93;;
9424;SDS011;17139;52.140;11.636;2023-02-28T00:31:51;4.30;;;4.00;;
9424;SDS011;17139;52.140;11.636;2023-02-28T00:34:18;3.30;;;3.10;;
9424;SDS011;17139;52.140;11.636;2023-02-28T00:36:45;2.43;;;2.33;;
9424;SDS011;17139;52.140;11.636;2023-02-28T00:39:15;3.10;;;3.00;;
9424;SDS011;17139;52.140;11.636;2023-02-28T00:41:42;3.30;;;2.97;;
9424;SDS011;17139;52.140;11.636;2023-02-28T00:44:09;10.87;;;3.00;;
9424;SDS011;17139;52.140;11.636;2023-02-28T00:46:37;3.27;;;3.03;;
9424;SDS011;17139;52.140;11.636;2023-02-28T00:49:04;3.27;;;3.07;;
9424;SDS011;17139;52.140;11.636;2023-02-28T00:51:31;2.80;;;2.60;;
9424;SDS011;17139;52.140;11.636;2023-02-28T00:53:58;3.72;;;3.28;;
9424;SDS011;17139;52.140;11.636;2023-02-28T00:56:25;4.10;;;3.13;;
9424;SDS011;17139;52.140;11.636;2023-02-28T00:58:52;2.43;;;2.23;;
9424;SDS011;17139;52.140;11.636;2023-02-28T01:01:22;1.87;;;1.87;;
9424;SDS011;17139;52.140;11.636;2023-02-28T01:03:50;2.43;;;2.33;;
9424;SDS011;17139;52.140;11.636;2023-02-28T01:06:17;2.67;;;2.47;;
9424;SDS011;17139;52.140;11.636;2023-02-28T01:08:44;2.83;;;2.60;;
9424;SDS011;17139;52.140;11.636;2023-02-28T01:11:12;2.87;;;2.77;;
9424;SDS011;17139;52.140;11.636;2023-02-28T01:13:41;2.97;;;2.88;;
9424;SDS011;17139;52.140;11.636;2023-02-28T01:16:08;3.90;;;3.70;;
9424;SDS011;17139;52.140;11.636;2023-02-28T01:18:36;3.17;;;2.97;;
9424;SDS011;17139;52.140;11.636;2023-02-28T01:21:05;6.00;;;2.60;;
9424;SDS011;17139;52.140;11.636;2023-02-28T01:23:33;4.23;;;2.63;;
9424;SDS011;17139;52.140;11.636;2023-02-28T01:26:03;2.83;;;2.73;;
9424;SDS011;17139;52.140;11.636;2023-02-28T01:28:31;4.17;;;2.83;;
9424;SDS011;17139;52.140;11.636;2023-02-28T01:30:58;3.17;;;2.87;;
9424;SDS011;17139;52.140;11.636;2023-02-28T01:33:25;4.13;;;3.83;;
9424;SDS011;17139;52.140;11.636;2023-02-28T01:35:57;5.22;;;3.78;;
9424;SDS011;17139;52.140;11.636;2023-02-28T01:38:25;3.33;;;3.13;;
9424;SDS011;17139;52.140;11.636;2023-02-28T01:40:52;2.97;;;2.87;;
9424;SDS011;17139;52.140;11.636;2023-02-28T01:43:22;2.90;;;2.60;;
9424;SDS011;17139;52.140;11.636;2023-02-28T01:45:50;2.43;;;2.23;;
9424;SDS011;17139;52.140;11.636;2023-02-28T01:48:18;2.47;;;2.37;;
9424;SDS011;17139;52.140;11.636;2023-02-28T01:50:47;3.27;;;2.97;;
9424;SDS011;17139;52.140;11.636;2023-02-28T01:53:15;2.80;;;2.70;;
9424;SDS011;17139;52.140;11.636;2023-02-28T01:55:47;3.07;;;2.87;;
9424;SDS011;17139;52.140;11.636;2023-02-28T01:58:17;2.67;;;2.47;;
9424;SDS011;17139;52.140;11.636;2023-02-28T02:00:44;2.73;;;2.57;;
9424;SDS011;17139;52.140;11.636;2023-02-28T02:03:12;2.63;;;2.53;;
9424;SDS011;17139;52.140;11.636;2023-02-28T02:05:44;2.92;;;2.80;;
9424;SDS011;17139;52.140;11.636;2023-02-28T02:08:15;2.80;;;2.60;;
9424;SDS011;17139;52.140;11.636;2023-02-28T02:10:46;3.13;;;2.93;;
9424;SDS011;17139;52.140;11.636;2023-02-28T02:13:25;2.83;;;2.73;;
9424;SDS011;17139;52.140;11.636;2023-02-28T02:16:05;2.33;;;2.23;;
9424;SDS011;17139;52.140;11.636;2023-02-28T02:18:40;4.40;;;2.53;;
9424;SDS011;17139;52.140;11.636;2023-02-28T02:21:34;2.50;;;2.40;;
9424;SDS011;17139;52.140;11.636;2023-02-28T02:27:23;2.80;;;2.70;;
9424;SDS011;17139;52.140;11.636;2023-02-28T02:30:03;2.17;;;2.00;;
9424;SDS011;17139;52.140;11.636;2023-02-28T02:33:01;3.97;;;3.78;;
9424;SDS011;17139;52.140;11.636;2023-02-28T02:35:39;3.07;;;2.83;;
9424;SDS011;17139;52.140;11.636;2023-02-28T02:38:13;2.07;;;2.00;;
9424;SDS011;17139;52.140;11.636;2023-02-28T02:40:47;1.90;;;1.90;;
9424;SDS011;17139;52.140;11.636;2023-02-28T02:43:22;2.67;;;2.53;;
9424;SDS011;17139;52.140;11.636;2023-02-28T02:45:55;1.70;;;1.70;;
9424;SDS011;17139;52.140;11.636;2023-02-28T02:48:26;1.70;;;1.60;;
9424;SDS011;17139;52.140;11.636;2023-02-28T02:50:58;1.97;;;1.63;;
9424;SDS011;17139;52.140;11.636;2023-02-28T02:53:28;1.77;;;1.67;;
9424;SDS011;17139;52.140;11.636;2023-02-28T02:55:59;1.53;;;1.53;;
9424;SDS011;17139;52.140;11.636;2023-02-28T02:58:28;1.60;;;1.60;;
9424;SDS011;17139;52.140;11.636;2023-02-28T03:01:01;4.60;;;1.40;;
9424;SDS011;17139;52.140;11.636;2023-02-28T03:03:29;2.23;;;1.90;;
9424;SDS011;17139;52.140;11.636;2023-02-28T03:06:00;1.80;;;1.70;;
9424;SDS011;17139;52.140;11.636;2023-02-28T03:08:29;1.13;;;1.13;;
9424;SDS011;17139;52.140;11.636;2023-02-28T03:11:00;1.70;;;1.60;;
9424;SDS011;17139;52.140;11.636;2023-02-28T03:13:35;1.57;;;1.57;;
9424;SDS011;17139;52.140;11.636;2023-02-28T03:16:28;6.00;;;1.60;;
9424;SDS011;17139;52.140;11.636;2023-02-28T03:19:14;2.33;;;2.23;;
9424;SDS011;17139;52.140;11.636;2023-02-28T03:22:03;1.80;;;1.70;;
9424;SDS011;17139;52.140;11.636;2023-02-28T03:24:45;3.47;;;3.03;;
9424;SDS011;17139;52.140;11.636;2023-02-28T03:27:17;2.20;;;2.10;;
9424;SDS011;17139;52.140;11.636;2023-02-28T03:29:50;2.10;;;2.00;;
9424;SDS011;17139;52.140;11.636;2023-02-28T03:32:24;1.87;;;1.77;;
9424;SDS011;17139;52.140;11.636;2023-02-28T03:34:56;1.57;;;1.57;;
9424;SDS011;17139;52.140;11.636;2023-02-28T03:37:31;1.53;;;1.43;;
9424;SDS011;17139;52.140;11.636;2023-02-28T03:40:02;1.23;;;1.23;;
9424;SDS011;17139;52.140;11.636;2023-02-28T03:42:38;1.83;;;1.77;;
9424;SDS011;17139;52.140;11.636;2023-02-28T03:45:10;1.85;;;1.75;;
9424;SDS011;17139;52.140;11.636;2023-02-28T03:47:42;2.40;;;2.30;;
9424;SDS011;17139;52.140;11.636;2023-02-28T03:50:15;2.33;;;2.23;;
9424;SDS011;17139;52.140;11.636;2023-02-28T03:52:48;1.57;;;1.40;;
9424;SDS011;17139;52.140;11.636;2023-02-28T03:55:18;1.90;;;1.80;;
9424;SDS011;17139;52.140;11.636;2023-02-28T03:57:50;1.30;;;1.30;;
9424;SDS011;17139;52.140;11.636;2023-02-28T04:00:25;1.90;;;1.80;;
9424;SDS011;17139;52.140;11.636;2023-02-28T04:02:56;1.67;;;1.63;;
9424;SDS011;17139;52.140;11.636;2023-02-28T04:05:24;2.10;;;2.00;;
9424;SDS011;17139;52.140;11.636;2023-02-28T04:07:53;1.80;;;1.70;;
9424;SDS011;17139;52.140;11.636;2023-02-28T04:10:20;2.92;;;2.65;;
9424;SDS011;17139;52.140;11.636;2023-02-28T04:12:47;3.13;;;2.17;;
9424;SDS011;17139;52.140;11.636;2023-02-28T04:15:14;2.40;;;2.13;;
9424;SDS011;17139;52.140;11.636;2023-02-28T04:17:41;3.53;;;1.80;;
9424;SDS011;17139;52.140;11.636;2023-02-28T04:20:09;3.07;;;2.47;;
9424;SDS011;17139;52.140;11.636;2023-02-28T04:22:36;1.60;;;1.60;;
9424;SDS011;17139;52.140;11.636;2023-02-28T04:25:06;4.83;;;1.77;;
9424;SDS011;17139;52.140;11.636;2023-02-28T04:27:33;1.23;;;1.23;;
9424;SDS011;17139;52.140;11.636;2023-02-28T04:30:00;1.93;;;1.80;;
9424;SDS011;17139;52.140;11.636;2023-02-28T04:32:27;1.53;;;1.53;;
9424;SDS011;17139;52.140;11.636;2023-02-28T04:34:54;1.63;;;1.53;;
9424;SDS011;17139;52.140;11.636;2023-02-28T04:37:21;2.03;;;1.93;;
9424;SDS011;17139;52.140;11.636;2023-02-28T04:39:52;1.60;;;1.50;;
9424;SDS011;17139;52.140;11.636;2023-02-28T04:42:21;2.90;;;2.70;;
9424;SDS011;17139;52.140;11.636;2023-02-28T04:44:48;1.80;;;1.80;;
9424;SDS011;17139;52.140;11.636;2023-02-28T04:47:15;2.63;;;2.30;;
9424;SDS011;17139;52.140;11.636;2023-02-28T04:49:42;1.37;;;1.37;;
9424;SDS011;17139;52.140;11.636;2023-02-28T04:52:09;3.80;;;1.77;;
9424;SDS011;17139;52.140;11.636;2023-02-28T04:54:38;1.50;;;1.50;;
9424;SDS011;17139;52.140;11.636;2023-02-28T04:57:05;2.40;;;2.00;;
9424;SDS011;17139;52.140;11.636;2023-02-28T04:59:33;1.63;;;1.63;;
9424;SDS011;17139;52.140;11.636;2023-02-28T05:02:00;1.63;;;1.63;;
9424;SDS011;17139;52.140;11.636;2023-02-28T05:04:31;1.53;;;1.50;;
9424;SDS011;17139;52.140;11.636;2023-02-28T05:06:59;2.30;;;1.97;;
9424;SDS011;17139;52.140;11.636;2023-02-28T05:09:26;2.90;;;2.65;;
9424;SDS011;17139;52.140;11.636;2023-02-28T05:11:54;3.30;;;3.13;;
9424;SDS011;17139;52.140;11.636;2023-02-28T05:14:21;2.07;;;1.97;;
9424;SDS011;17139;52.140;11.636;2023-02-28T05:16:50;1.10;;;1.10;;
9424;SDS011;17139;52.140;11.636;2023-02-28T05:19:17;1.30;;;1.30;;
9424;SDS011;17139;52.140;11.636;2023-02-28T05:21:49;2.03;;;1.93;;
9424;SDS011;17139;52.140;11.636;2023-02-28T05:24:18;1.83;;;1.73;;
9424;SDS011;17139;52.140;11.636;2023-02-28T05:26:47;1.90;;;1.80;;
9424;SDS011;17139;52.140;11.636;2023-02-28T05:29:16;1.90;;;1.80;;
9424;SDS011;17139;52.140;11.636;2023-02-28T05:31:43;3.35;;;2.85;;
9424;SDS011;17139;52.140;11.636;2023-02-28T05:34:12;2.97;;;2.88;;
9424;SDS011;17139;52.140;11.636;2023-02-28T05:36:40;2.90;;;2.13;;
9424;SDS011;17139;52.140;11.636;2023-02-28T05:39:07;3.90;;;2.43;;
9424;SDS011;17139;52.140;11.636;2023-02-28T05:41:38;1.73;;;1.63;;
9424;SDS011;17139;52.140;11.636;2023-02-28T05:44:06;2.90;;;2.70;;
9424;SDS011;17139;52.140;11.636;2023-02-28T05:46:33;2.20;;;2.10;;
9424;SDS011;17139;52.140;11.636;2023-02-28T05:49:01;2.30;;;2.17;;
9424;SDS011;17139;52.140;11.636;2023-02-28T05:51:29;1.87;;;1.77;;
9424;SDS011;17139;52.140;11.636;2023-02-28T05:53:58;2.22;;;2.13;;
9424;SDS011;17139;52.140;11.636;2023-02-28T05:56:26;1.47;;;1.47;;
9424;SDS011;17139;52.140;11.636;2023-02-28T05:58:53;1.53;;;1.53;;
9424;SDS011;17139;52.140;11.636;2023-02-28T06:01:22;2.40;;;2.13;;
9424;SDS011;17139;52.140;11.636;2023-02-28T06:03:51;2.10;;;2.00;;
9424;SDS011;17139;52.140;11.636;2023-02-28T06:06:18;1.50;;;1.50;;
9424;SDS011;17139;52.140;11.636;2023-02-28T06:08:46;1.67;;;1.57;;
9424;SDS011;17139;52.140;11.636;2023-02-28T06:11:13;2.20;;;2.10;;
9424;SDS011;17139;52.140;11.636;2023-02-28T06:13:40;3.20;;;3.00;;
9424;SDS011;17139;52.140;11.636;2023-02-28T06:16:08;4.03;;;3.63;;
9424;SDS011;17139;52.140;11.636;2023-02-28T06:18:36;2.30;;;2.17;;
9424;SDS011;17139;52.140;11.636;2023-02-28T06:21:03;2.30;;;2.10;;
9424;SDS011;17139;52.140;11.636;2023-02-28T06:23:30;2.03;;;1.93;;
9424;SDS011;17139;52.140;11.636;2023-02-28T06:25:59;4.20;;;1.53;;
9424;SDS011;17139;52.140;11.636;2023-02-28T06:28:27;2.03;;;1.90;;
9424;SDS011;17139;52.140;11.636;2023-02-28T06:30:55;2.20;;;2.10;;
9424;SDS011;17139;52.140;11.636;2023-02-28T06:33:22;2.60;;;2.40;;
9424;SDS011;17139;52.140;11.636;2023-02-28T06:35:50;4.30;;;3.65;;
9424;SDS011;17139;52.140;11.636;2023-02-28T06:38:18;3.88;;;3.58;;
9424;SDS011;17139;52.140;11.636;2023-02-28T06:40:48;2.40;;;2.30;;
9424;SDS011;17139;52.140;11.636;2023-02-28T06:43:21;1.60;;;1.60;;
9424;SDS011;17139;52.140;11.636;2023-02-28T06:45:48;2.40;;;1.90;;
9424;SDS011;17139;52.140;11.636;2023-02-28T06:48:15;1.97;;;1.87;;
9424;SDS011;17139;52.140;11.636;2023-02-28T06:50:44;1.23;;;1.23;;
9424;SDS011;17139;52.140;11.636;2023-02-28T06:53:11;3.13;;;2.83;;
9424;SDS011;17139;52.140;11.636;2023-02-28T06:55:39;2.17;;;2.00;;
9424;SDS011;17139;52.140;11.636;2023-02-28T06:58:07;2.90;;;2.00;;
9424;SDS011;17139;52.140;11.636;2023-02-28T07:00:42;2.40;;;2.30;;
9424;SDS011;17139;52.140;11.636;2023-02-28T07:03:10;3.43;;;3.23;;
9424;SDS011;17139;52.140;11.636;2023-02-28T07:05:38;2.00;;;1.90;;
9424;SDS011;17139;52.140;11.636;2023-02-28T07:08:06;1.63;;;1.57;;
9424;SDS011;17139;52.140;11.636;2023-02-28T07:10:33;2.70;;;1.80;;
9424;SDS011;17139;52.140;11.636;2023-02-28T07:13:00;2.20;;;2.10;;
9424;SDS011;17139;52.140;11.636;2023-02-28T07:15:27;2.40;;;1.63;;
9424;SDS011;17139;52.140;11.636;2023-02-28T07:17:56;5.67;;;3.27;;
9424;SDS011;17139;52.140;11.636;2023-02-28T07:20:23;1.50;;;1.50;;
9424;SDS011;17139;52.140;11.636;2023-02-28T07:22:50;1.57;;;1.47;;
9424;SDS011;17139;52.140;11.636;2023-02-28T07:25:21;1.40;;;1.40;;
9424;SDS011;17139;52.140;11.636;2023-02-28T07:27:48;2.92;;;2.70;;
9424;SDS011;17139;52.140;11.636;2023-02-28T07:30:15;2.03;;;1.93;;
9424;SDS011;17139;52.140;11.636;2023-02-28T07:32:43;3.13;;;1.67;;
9424;SDS011;17139;52.140;11.636;2023-02-28T07:35:12;3.50;;;2.10;;
9424;SDS011;17139;52.140;11.636;2023-02-28T07:37:40;1.67;;;1.67;;
9424;SDS011;17139;52.140;11.636;2023-02-28T07:40:08;1.67;;;1.67;;
9424;SDS011;17139;52.140;11.636;2023-02-28T07:42:38;1.60;;;1.60;;
9424;SDS011;17139;52.140;11.636;2023-02-28T07:45:06;2.00;;;1.83;;
9424;SDS011;17139;52.140;11.636;2023-02-28T07:47:36;2.70;;;1.80;;
9424;SDS011;17139;52.140;11.636;2023-02-28T07:50:04;3.03;;;2.83;;
9424;SDS011;17139;52.140;11.636;2023-02-28T07:52:32;2.70;;;2.07;;
9424;SDS011;17139;52.140;11.636;2023-02-28T07:54:59;1.97;;;1.90;;
9424;SDS011;17139;52.140;11.636;2023-02-28T07:57:26;1.80;;;1.70;;
9424;SDS011;17139;52.140;11.636;2023-02-28T07:59:53;2.60;;;1.47;;
9424;SDS011;17139;52.140;11.636;2023-02-28T08:02:20;1.97;;;1.87;;
9424;SDS011;17139;52.140;11.636;2023-02-28T08:04:47;6.10;;;1.57;;
9424;SDS011;17139;52.140;11.636;2023-02-28T08:07:15;2.07;;;1.97;;
9424;SDS011;17139;52.140;11.636;2023-02-28T08:09:44;2.38;;;2.28;;
9424;SDS011;17139;52.140;11.636;2023-02-28T08:12:11;3.13;;;2.92;;
9424;SDS011;17139;52.140;11.636;2023-02-28T08:14:38;2.60;;;2.40;;
9424;SDS011;17139;52.140;11.636;2023-02-28T08:17:05;1.90;;;1.53;;
9424;SDS011;17139;52.140;11.636;2023-02-28T08:19:33;1.17;;;1.17;;
9424;SDS011;17139;52.140;11.636;2023-02-28T08:22:00;1.90;;;1.80;;
9424;SDS011;17139;52.140;11.636;2023-02-28T08:24:27;1.77;;;1.67;;
9424;SDS011;17139;52.140;11.636;2023-02-28T08:26:55;1.70;;;1.70;;
9424;SDS011;17139;52.140;11.636;2023-02-28T08:29:23;2.00;;;1.90;;
9424;SDS011;17139;52.140;11.636;2023-02-28T08:31:50;1.77;;;1.70;;
9424;SDS011;17139;52.140;11.636;2023-02-28T08:34:17;2.80;;;2.60;;
9424;SDS011;17139;52.140;11.636;2023-02-28T08:36:44;3.27;;;2.07;;
9424;SDS011;17139;52.140;11.636;2023-02-28T08:39:11;1.67;;;1.57;;
9424;SDS011;17139;52.140;11.636;2023-02-28T08:41:38;1.23;;;1.17;;
9424;SDS011;17139;52.140;11.636;2023-02-28T08:44:07;1.87;;;1.77;;
9424;SDS011;17139;52.140;11.636;2023-02-28T08:46:34;2.27;;;2.00;;
9424;SDS011;17139;52.140;11.636;2023-02-28T08:49:01;1.30;;;1.30;;
9424;SDS011;17139;52.140;11.636;2023-02-28T08:51:29;1.93;;;1.83;;
9424;SDS011;17139;52.140;11.636;2023-02-28T08:53:57;2.72;;;2.15;;
9424;SDS011;17139;52.140;11.636;2023-02-28T08:56:26;2.03;;;1.67;;
9424;SDS011;17139;52.140;11.636;2023-02-28T08:58:54;2.37;;;1.67;;
9424;SDS011;17139;52.140;11.636;2023-02-28T09:01:23;1.77;;;1.67;;
9424;SDS011;17139;52.140;11.636;2023-02-28T09:03:53;1.63;;;1.63;;
9424;SDS011;17139;52.140;11.636;2023-02-28T09:06:22;1.43;;;1.43;;
9424;SDS011;17139;52.140;11.636;2023-02-28T09:08:50;1.70;;;1.47;;
9424;SDS011;17139;52.140;11.636;2023-02-28T09:11:18;1.53;;;1.53;;
9424;SDS011;17139;52.140;11.636;2023-02-28T09:13:45;1.60;;;1.50;;
9424;SDS011;17139;52.140;11.636;2023-02-28T09:16:13;1.60;;;1.50;;
9424;SDS011;17139;52.140;11.636;2023-02-28T09:18:43;1.20;;;1.20;;
9424;SDS011;17139;52.140;11.636;2023-02-28T09:21:13;1.30;;;1.30;;
9424;SDS011;17139;52.140;11.636;2023-02-28T09:23:42;1.85;;;1.75;;
9424;SDS011;17139;52.140;11.636;2023-02-28T09:26:13;1.60;;;1.60;;
9424;SDS011;17139;52.140;11.636;2023-02-28T09:28:41;4.20;;;1.40;;
9424;SDS011;17139;52.140;11.636;2023-02-28T09:31:10;1.20;;;1.20;;
9424;SDS011;17139;52.140;11.636;2023-02-28T09:33:39;1.40;;;1.30;;
9424;SDS011;17139;52.140;11.636;2023-02-28T09:36:08;0.80;;;0.80;;
9424;SDS011;17139;52.140;11.636;2023-02-28T09:38:35;1.30;;;1.30;;
9424;SDS011;17139;52.140;11.636;2023-02-28T09:41:03;1.07;;;1.07;;
9424;SDS011;17139;52.140;11.636;2023-02-28T09:43:38;1.40;;;1.40;;
9424;SDS011;17139;52.140;11.636;2023-02-28T09:46:12;1.27;;;1.27;;
9424;SDS011;17139;52.140;11.636;2023-02-28T09:48:47;1.92;;;1.73;;
9424;SDS011;17139;52.140;11.636;2023-02-28T09:51:23;2.55;;;2.13;;
9424;SDS011;17139;52.140;11.636;2023-02-28T09:53:56;1.50;;;1.47;;
9424;SDS011;17139;52.140;11.636;2023-02-28T09:56:24;0.90;;;0.90;;
9424;SDS011;17139;52.140;11.636;2023-02-28T09:58:55;1.53;;;1.43;;
9424;SDS011;17139;52.140;11.636;2023-02-28T10:01:25;1.80;;;1.23;;
9424;SDS011;17139;52.140;11.636;2023-02-28T10:03:57;1.20;;;1.10;;
9424;SDS011;17139;52.140;11.636;2023-02-28T10:06:32;1.13;;;1.13;;
9424;SDS011;17139;52.140;11.636;2023-02-28T10:09:07;1.00;;;1.00;;
9424;SDS011;17139;52.140;11.636;2023-02-28T10:11:38;1.40;;;1.30;;
9424;SDS011;17139;52.140;11.636;2023-02-28T10:14:10;1.33;;;1.27;;
9424;SDS011;17139;52.140;11.636;2023-02-28T10:16:42;1.03;;;1.03;;
9424;SDS011;17139;52.140;11.636;2023-02-28T10:19:17;1.17;;;1.17;;
9424;SDS011;17139;52.140;11.636;2023-02-28T10:21:52;1.20;;;1.20;;
9424;SDS011;17139;52.140;11.636;2023-02-28T10:24:26;1.10;;;1.10;;
9424;SDS011;17139;52.140;11.636;2023-02-28T10:27:03;0.90;;;0.90;;
9424;SDS011;17139;52.140;11.636;2023-02-28T10:29:37;1.20;;;1.20;;
9424;SDS011;17139;52.140;11.636;2023-02-28T10:32:08;1.47;;;1.47;;
9424;SDS011;17139;52.140;11.636;2023-02-28T10:34:40;1.17;;;1.17;;
9424;SDS011;17139;52.140;11.636;2023-02-28T10:37:08;1.70;;;1.60;;
9424;SDS011;17139;52.140;11.636;2023-02-28T10:39:38;1.40;;;1.30;;
9424;SDS011;17139;52.140;11.636;2023-02-28T10:42:18;1.33;;;1.33;;
9424;SDS011;17139;52.140;11.636;2023-02-28T10:44:46;1.30;;;1.30;;
9424;SDS011;17139;52.140;11.636;2023-02-28T10:47:14;1.13;;;1.13;;
9424;SDS011;17139;52.140;11.636;2023-02-28T10:49:47;0.93;;;0.93;;
9424;SDS011;17139;52.140;11.636;2023-02-28T10:52:18;1.00;;;1.00;;
9424;SDS011;17139;52.140;11.636;2023-02-28T10:55:15;0.80;;;0.80;;
9424;SDS011;17139;52.140;11.636;2023-02-28T10:57:47;3.35;;;1.20;;
9424;SDS011;17139;52.140;11.636;2023-02-28T11:00:15;1.85;;;1.42;;
9424;SDS011;17139;52.140;11.636;2023-02-28T11:02:44;1.13;;;1.13;;
9424;SDS011;17139;52.140;11.636;2023-02-28T11:05:25;1.20;;;1.10;;
9424;SDS011;17139;52.140;11.636;2023-02-28T11:07:55;0.77;;;0.77;;
9424;SDS011;17139;52.140;11.636;2023-02-28T11:10:32;2.83;;;1.27;;
9424;SDS011;17139;52.140;11.636;2023-02-28T11:13:00;1.40;;;1.40;;
9424;SDS011;17139;52.140;11.636;2023-02-28T11:15:29;0.80;;;0.80;;
9424;SDS011;17139;52.140;11.636;2023-02-28T11:17:58;0.90;;;0.90;;
9424;SDS011;17139;52.140;11.636;2023-02-28T11:20:28;1.07;;;1.07;;
9424;SDS011;17139;52.140;11.636;2023-02-28T11:22:58;0.47;;;0.47;;
9424;SDS011;17139;52.140;11.636;2023-02-28T11:25:28;1.00;;;0.93;;
9424;SDS011;17139;52.140;11.636;2023-02-28T11:27:59;1.10;;;1.10;;
9424;SDS011;17139;52.140;11.636;2023-02-28T11:30:31;1.20;;;1.20;;
9424;SDS011;17139;52.140;11.636;2023-02-28T11:33:01;1.17;;;1.17;;
9424;SDS011;17139;52.140;11.636;2023-02-28T11:35:44;1.10;;;1.10;;
9424;SDS011;17139;52.140;11.636;2023-02-28T11:38:15;1.00;;;1.00;;
9424;SDS011;17139;52.140;11.636;2023-02-28T11:40:43;1.13;;;1.10;;
9424;SDS011;17139;52.140;11.636;2023-02-28T11:43:21;1.50;;;1.40;;
9424;SDS011;17139;52.140;11.636;2023-02-28T11:46:03;1.90;;;1.10;;
9424;SDS011;17139;52.140;11.636;2023-02-28T11:48:42;1.60;;;1.40;;
9424;SDS011;17139;52.140;11.636;2023-02-28T11:51:17;1.00;;;1.00;;
9424;SDS011;17139;52.140;11.636;2023-02-28T11:53:55;1.60;;;1.50;;
9424;SDS011;17139;52.140;11.636;2023-02-28T11:56:47;2.20;;;1.15;;
9424;SDS011;17139;52.140;11.636;2023-02-28T11:59:29;1.17;;;1.17;;
9424;SDS011;17139;52.140;11.636;2023-02-28T12:02:06;1.27;;;1.27;;
9424;SDS011;17139;52.140;11.636;2023-02-28T12:05:01;1.50;;;1.40;;
9424;SDS011;17139;52.140;11.636;2023-02-28T12:07:47;1.20;;;1.20;;
9424;SDS011;17139;52.140;11.636;2023-02-28T12:10:24;0.80;;;0.80;;
9424;SDS011;17139;52.140;11.636;2023-02-28T12:12:58;0.70;;;0.70;;
9424;SDS011;17139;52.140;11.636;2023-02-28T12:15:39;0.43;;;0.43;;
9424;SDS011;17139;52.140;11.636;2023-02-28T12:18:26;1.23;;;1.23;;
9424;SDS011;17139;52.140;11.636;2023-02-28T12:21:04;1.77;;;1.67;;
9424;SDS011;17139;52.140;11.636;2023-02-28T12:24:01;1.65;;;1.55;;
9424;SDS011;17139;52.140;11.636;2023-02-28T12:26:45;4.53;;;1.50;;
9424;SDS011;17139;52.140;11.636;2023-02-28T12:29:15;1.63;;;1.53;;
9424;SDS011;17139;52.140;11.636;2023-02-28T12:31:46;1.73;;;1.63;;
9424;SDS011;17139;52.140;11.636;2023-02-28T12:34:16;1.13;;;1.13;;
9424;SDS011;17139;52.140;11.636;2023-02-28T12:36:46;1.30;;;1.23;;
9424;SDS011;17139;52.140;11.636;2023-02-28T12:39:18;1.53;;;1.53;;
9424;SDS011;17139;52.140;11.636;2023-02-28T12:41:52;1.03;;;1.03;;
9424;SDS011;17139;52.140;11.636;2023-02-28T12:44:23;1.40;;;1.40;;
9424;SDS011;17139;52.140;11.636;2023-02-28T12:46:55;6.25;;;1.90;;
9424;SDS011;17139;52.140;11.636;2023-02-28T12:49:27;1.73;;;1.67;;
9424;SDS011;17139;52.140;11.636;2023-02-28T12:51:59;1.33;;;1.23;;
9424;SDS011;17139;52.140;11.636;2023-02-28T12:54:28;1.57;;;1.47;;
9424;SDS011;17139;52.140;11.636;2023-02-28T12:57:05;1.00;;;1.00;;
9424;SDS011;17139;52.140;11.636;2023-02-28T12:59:38;1.40;;;1.40;;
9424;SDS011;17139;52.140;11.636;2023-02-28T13:02:11;0.80;;;0.80;;
9424;SDS011;17139;52.140;11.636;2023-02-28T13:08:04;1.63;;;1.52;;
9424;SDS011;17139;52.140;11.636;2023-02-28T13:10:49;1.13;;;1.13;;
9424;SDS011;17139;52.140;11.636;2023-02-28T13:13:22;1.20;;;1.07;;
9424;SDS011;17139;52.140;11.636;2023-02-28T13:16:02;1.17;;;1.17;;
9424;SDS011;17139;52.140;11.636;2023-02-28T13:18:32;0.50;;;0.50;;
9424;SDS011;17139;52.140;11.636;2023-02-28T13:21:05;3.97;;;1.63;;
9424;SDS011;17139;52.140;11.636;2023-02-28T13:23:36;1.90;;;1.10;;
9424;SDS011;17139;52.140;11.636;2023-02-28T13:26:06;1.70;;;1.60;;
9424;SDS011;17139;52.140;11.636;2023-02-28T13:34:35;0.93;;;0.93;;
9424;SDS011;17139;52.140;11.636;2023-02-28T13:40:22;1.53;;;1.43;;
9424;SDS011;17139;52.140;11.636;2023-02-28T13:42:55;1.95;;;1.85;;
9424;SDS011;17139;52.140;11.636;2023-02-28T13:45:24;1.40;;;1.40;;
9424;SDS011;17139;52.140;11.636;2023-02-28T13:47:53;1.40;;;1.40;;
9424;SDS011;17139;52.140;11.636;2023-02-28T13:50:28;1.20;;;1.20;;
9424;SDS011;17139;52.140;11.636;2023-02-28T13:56:01;1.23;;;1.23;;
9424;SDS011;17139;52.140;11.636;2023-02-28T13:58:46;1.93;;;1.67;;
9424;SDS011;17139;52.140;11.636;2023-02-28T14:04:37;1.43;;;1.33;;
9424;SDS011;17139;52.140;11.636;2023-02-28T14:07:29;1.52;;;1.52;;
9424;SDS011;17139;52.140;11.636;2023-02-28T14:10:01;1.90;;;1.80;;
9424;SDS011;17139;52.140;11.636;2023-02-28T14:12:55;1.60;;;1.50;;
9424;SDS011;17139;52.140;11.636;2023-02-28T14:18:21;0.93;;;0.93;;
9424;SDS011;17139;52.140;11.636;2023-02-28T14:20:56;1.20;;;1.20;;
9424;SDS011;17139;52.140;11.636;2023-02-28T14:23:42;5.87;;;1.60;;
9424;SDS011;17139;52.140;11.636;2023-02-28T14:26:34;5.10;;;3.03;;
9424;SDS011;17139;52.140;11.636;2023-02-28T14:29:30;1.70;;;1.70;;
9424;SDS011;17139;52.140;11.636;2023-02-28T14:32:11;1.85;;;1.75;;
9424;SDS011;17139;52.140;11.636;2023-02-28T14:34:50;2.00;;;1.90;;
9424;SDS011;17139;52.140;11.636;2023-02-28T14:37:24;1.80;;;1.80;;
9424;SDS011;17139;52.140;11.636;2023-02-28T14:39:56;1.50;;;1.50;;
9424;SDS011;17139;52.140;11.636;2023-02-28T14:42:27;2.20;;;1.37;;
9424;SDS011;17139;52.140;11.636;2023-02-28T14:44:55;1.43;;;1.33;;
9424;SDS011;17139;52.140;11.636;2023-02-28T14:47:23;1.20;;;1.20;;
9424;SDS011;17139;52.140;11.636;2023-02-28T14:49:55;1.13;;;1.13;;
9424;SDS011;17139;52.140;11.636;2023-02-28T14:52:23;1.30;;;1.30;;
9424;SDS011;17139;52.140;11.636;2023-02-28T14:54:52;1.40;;;1.40;;
9424;SDS011;17139;52.140;11.636;2023-02-28T14:57:23;1.83;;;1.73;;
9424;SDS011;17139;52.140;11.636;2023-02-28T14:59:58;1.60;;;1.50;;
9424;SDS011;17139;52.140;11.636;2023-02-28T15:02:29;3.70;;;1.43;;
9424;SDS011;17139;52.140;11.636;2023-02-28T15:04:58;2.43;;;1.53;;
9424;SDS011;17139;52.140;11.636;2023-02-28T15:07:30;1.40;;;1.30;;
9424;SDS011;17139;52.140;11.636;2023-02-28T15:10:11;1.60;;;1.50;;
9424;SDS011;17139;52.140;11.636;2023-02-28T15:12:46;1.40;;;1.40;;
9424;SDS011;17139;52.140;11.636;2023-02-28T15:15:21;2.13;;;1.40;;
9424;SDS011;17139;52.140;11.636;2023-02-28T15:17:52;1.50;;;1.50;;
9424;SDS011;17139;52.140;11.636;2023-02-28T15:20:23;2.53;;;1.50;;
9424;SDS011;17139;52.140;11.636;2023-02-28T15:22:52;1.40;;;1.40;;
9424;SDS011;17139;52.140;11.636;2023-02-28T15:25:21;1.92;;;1.83;;
9424;SDS011;17139;52.140;11.636;2023-02-28T15:27:51;2.47;;;2.15;;
9424;SDS011;17139;52.140;11.636;2023-02-28T15:30:23;2.43;;;1.50;;
9424;SDS011;17139;52.140;11.636;2023-02-28T15:33:03;1.60;;;1.50;;
9424;SDS011;17139;52.140;11.636;2023-02-28T15:35:33;2.10;;;2.00;;
9424;SDS011;17139;52.140;11.636;2023-02-28T15:38:01;2.47;;;1.80;;